Masury, Ohio
Current Conditions -  °F | °C
As of 12:51 PM on Monday 26 Jan 2015 (Local Time) from KYNG Reporting Station
Light Snow Light Snow  
Wind Chill: 11°   Ceiling: 1400
Heat Index: 22°   Visibility: 7mi
Dew Point: 16°   Wind: 10mph
Humidity: 78%   Direction: 350°N
Pressure: 29.75"   Gusts: NA
Location:  41.21°N, 80.54°W
Report Text: KYNG 261751Z 35009KT 7SM -SN BKN014 BKN024 OVC040 M06/M09 A2975 RMK AO2 SLP092 60004 4/008 933009 T10561089 11056 21078 58003
Loading
Personal Weather Stations






























Interactive Weather Map New forecast layout! Learn more

10-Day Weather Forecast

Advertisements
Track Severe Weather on mobile